sensor_id;sensor_type;location;lat;lon;timestamp;P1;durP1;ratioP1;P2;durP2;ratioP2
16766;SDS011;8501;49.926;8.404;2023-04-01T00:01:28;4.03;;;1.97;;
16766;SDS011;8501;49.926;8.404;2023-04-01T00:03:54;5.60;;;1.73;;
16766;SDS011;8501;49.926;8.404;2023-04-01T00:06:21;3.53;;;1.63;;
16766;SDS011;8501;49.926;8.404;2023-04-01T00:08:46;5.87;;;2.00;;
16766;SDS011;8501;49.926;8.404;2023-04-01T00:11:12;4.30;;;1.60;;
16766;SDS011;8501;49.926;8.404;2023-04-01T00:13:39;5.23;;;1.80;;
16766;SDS011;8501;49.926;8.404;2023-04-01T00:16:06;5.43;;;1.60;;
16766;SDS011;8501;49.926;8.404;2023-04-01T00:18:32;4.27;;;1.30;;
16766;SDS011;8501;49.926;8.404;2023-04-01T00:20:58;6.10;;;1.53;;
16766;SDS011;8501;49.926;8.404;2023-04-01T00:23:23;4.33;;;1.50;;
16766;SDS011;8501;49.926;8.404;2023-04-01T00:25:49;3.53;;;1.30;;
16766;SDS011;8501;49.926;8.404;2023-04-01T00:28:16;4.23;;;1.50;;
16766;SDS011;8501;49.926;8.404;2023-04-01T00:30:43;4.40;;;1.50;;
16766;SDS011;8501;49.926;8.404;2023-04-01T00:33:08;3.40;;;1.40;;
16766;SDS011;8501;49.926;8.404;2023-04-01T00:35:34;4.33;;;1.43;;
16766;SDS011;8501;49.926;8.404;2023-04-01T00:38:00;5.20;;;1.50;;
16766;SDS011;8501;49.926;8.404;2023-04-01T00:40:27;4.80;;;1.40;;
16766;SDS011;8501;49.926;8.404;2023-04-01T00:42:55;3.77;;;1.40;;
16766;SDS011;8501;49.926;8.404;2023-04-01T00:47:58;5.70;;;1.50;;
16766;SDS011;8501;49.926;8.404;2023-04-01T00:50:29;6.10;;;1.60;;
16766;SDS011;8501;49.926;8.404;2023-04-01T00:52:57;5.00;;;1.60;;
16766;SDS011;8501;49.926;8.404;2023-04-01T00:55:25;4.93;;;1.50;;
16766;SDS011;8501;49.926;8.404;2023-04-01T00:57:54;6.30;;;1.67;;
16766;SDS011;8501;49.926;8.404;2023-04-01T01:00:22;3.70;;;1.40;;
16766;SDS011;8501;49.926;8.404;2023-04-01T01:02:47;5.30;;;1.47;;
16766;SDS011;8501;49.926;8.404;2023-04-01T01:05:15;5.83;;;1.40;;
16766;SDS011;8501;49.926;8.404;2023-04-01T01:10:35;5.47;;;1.50;;
16766;SDS011;8501;49.926;8.404;2023-04-01T01:15:48;4.20;;;1.30;;
16766;SDS011;8501;49.926;8.404;2023-04-01T01:18:19;3.53;;;1.10;;
16766;SDS011;8501;49.926;8.404;2023-04-01T01:26:58;4.47;;;1.37;;
16766;SDS011;8501;49.926;8.404;2023-04-01T01:32:26;4.27;;;1.20;;
16766;SDS011;8501;49.926;8.404;2023-04-01T01:35:16;6.33;;;1.83;;
16766;SDS011;8501;49.926;8.404;2023-04-01T01:37:54;5.13;;;1.07;;
16766;SDS011;8501;49.926;8.404;2023-04-01T01:40:23;5.30;;;1.20;;
16766;SDS011;8501;49.926;8.404;2023-04-01T01:42:52;4.27;;;1.40;;
16766;SDS011;8501;49.926;8.404;2023-04-01T01:45:21;3.27;;;1.23;;
16766;SDS011;8501;49.926;8.404;2023-04-01T01:47:50;4.93;;;1.40;;
16766;SDS011;8501;49.926;8.404;2023-04-01T01:50:17;6.10;;;1.27;;
16766;SDS011;8501;49.926;8.404;2023-04-01T01:52:44;6.60;;;1.67;;
16766;SDS011;8501;49.926;8.404;2023-04-01T01:55:29;3.50;;;1.20;;
16766;SDS011;8501;49.926;8.404;2023-04-01T01:57:58;5.00;;;1.87;;
16766;SDS011;8501;49.926;8.404;2023-04-01T02:00:29;3.77;;;1.20;;
16766;SDS011;8501;49.926;8.404;2023-04-01T02:02:55;3.07;;;1.20;;
16766;SDS011;8501;49.926;8.404;2023-04-01T02:05:24;3.20;;;1.10;;
16766;SDS011;8501;49.926;8.404;2023-04-01T02:07:55;3.00;;;1.10;;
16766;SDS011;8501;49.926;8.404;2023-04-01T02:10:26;4.87;;;1.27;;
16766;SDS011;8501;49.926;8.404;2023-04-01T02:12:54;6.27;;;1.50;;
16766;SDS011;8501;49.926;8.404;2023-04-01T02:15:24;4.77;;;1.40;;
16766;SDS011;8501;49.926;8.404;2023-04-01T02:17:52;4.60;;;1.20;;
16766;SDS011;8501;49.926;8.404;2023-04-01T02:20:22;3.90;;;1.47;;
16766;SDS011;8501;49.926;8.404;2023-04-01T02:22:55;4.13;;;1.30;;
16766;SDS011;8501;49.926;8.404;2023-04-01T02:25:28;2.97;;;1.17;;
16766;SDS011;8501;49.926;8.404;2023-04-01T02:27:58;4.40;;;1.10;;
16766;SDS011;8501;49.926;8.404;2023-04-01T02:30:25;3.73;;;1.20;;
16766;SDS011;8501;49.926;8.404;2023-04-01T02:32:54;2.70;;;1.07;;
16766;SDS011;8501;49.926;8.404;2023-04-01T02:35:21;4.27;;;1.40;;
16766;SDS011;8501;49.926;8.404;2023-04-01T02:37:48;3.43;;;1.30;;
16766;SDS011;8501;49.926;8.404;2023-04-01T02:40:16;6.67;;;1.40;;
16766;SDS011;8501;49.926;8.404;2023-04-01T02:42:42;3.13;;;1.00;;
16766;SDS011;8501;49.926;8.404;2023-04-01T02:45:08;2.97;;;1.07;;
16766;SDS011;8501;49.926;8.404;2023-04-01T02:47:34;4.37;;;1.30;;
16766;SDS011;8501;49.926;8.404;2023-04-01T02:50:00;3.90;;;1.57;;
16766;SDS011;8501;49.926;8.404;2023-04-01T02:52:26;5.63;;;1.60;;
16766;SDS011;8501;49.926;8.404;2023-04-01T02:54:52;3.37;;;1.10;;
16766;SDS011;8501;49.926;8.404;2023-04-01T02:57:19;1.73;;;1.07;;
16766;SDS011;8501;49.926;8.404;2023-04-01T02:59:45;3.53;;;0.93;;
16766;SDS011;8501;49.926;8.404;2023-04-01T03:02:11;5.13;;;1.63;;
16766;SDS011;8501;49.926;8.404;2023-04-01T03:04:37;5.67;;;1.10;;
16766;SDS011;8501;49.926;8.404;2023-04-01T03:07:02;3.63;;;1.33;;
16766;SDS011;8501;49.926;8.404;2023-04-01T03:09:28;3.67;;;1.20;;
16766;SDS011;8501;49.926;8.404;2023-04-01T03:11:54;6.67;;;1.30;;
16766;SDS011;8501;49.926;8.404;2023-04-01T03:14:19;4.83;;;1.30;;
16766;SDS011;8501;49.926;8.404;2023-04-01T03:16:45;3.97;;;1.30;;
16766;SDS011;8501;49.926;8.404;2023-04-01T03:19:11;5.03;;;1.10;;
16766;SDS011;8501;49.926;8.404;2023-04-01T03:21:36;3.33;;;1.17;;
16766;SDS011;8501;49.926;8.404;2023-04-01T03:24:02;2.73;;;1.13;;
16766;SDS011;8501;49.926;8.404;2023-04-01T03:26:27;4.67;;;1.20;;
16766;SDS011;8501;49.926;8.404;2023-04-01T03:28:53;4.93;;;1.20;;
16766;SDS011;8501;49.926;8.404;2023-04-01T03:31:20;5.93;;;1.10;;
16766;SDS011;8501;49.926;8.404;2023-04-01T03:33:45;4.87;;;1.20;;
16766;SDS011;8501;49.926;8.404;2023-04-01T03:36:11;3.80;;;1.33;;
16766;SDS011;8501;49.926;8.404;2023-04-01T03:38:38;3.37;;;1.00;;
16766;SDS011;8501;49.926;8.404;2023-04-01T03:41:07;4.30;;;1.00;;
16766;SDS011;8501;49.926;8.404;2023-04-01T03:43:36;3.93;;;1.30;;
16766;SDS011;8501;49.926;8.404;2023-04-01T03:46:02;4.33;;;1.00;;
16766;SDS011;8501;49.926;8.404;2023-04-01T03:48:27;5.13;;;1.37;;
16766;SDS011;8501;49.926;8.404;2023-04-01T03:50:53;3.67;;;1.03;;
16766;SDS011;8501;49.926;8.404;2023-04-01T03:53:18;5.90;;;1.37;;
16766;SDS011;8501;49.926;8.404;2023-04-01T03:55:44;3.70;;;1.30;;
16766;SDS011;8501;49.926;8.404;2023-04-01T03:58:10;5.47;;;1.30;;
16766;SDS011;8501;49.926;8.404;2023-04-01T04:00:36;3.77;;;1.30;;
16766;SDS011;8501;49.926;8.404;2023-04-01T04:03:02;4.13;;;1.30;;
16766;SDS011;8501;49.926;8.404;2023-04-01T04:05:27;6.20;;;1.40;;
16766;SDS011;8501;49.926;8.404;2023-04-01T04:07:53;5.50;;;1.10;;
16766;SDS011;8501;49.926;8.404;2023-04-01T04:10:19;6.93;;;1.40;;
16766;SDS011;8501;49.926;8.404;2023-04-01T04:12:45;4.77;;;1.30;;
16766;SDS011;8501;49.926;8.404;2023-04-01T04:15:10;3.23;;;1.23;;
16766;SDS011;8501;49.926;8.404;2023-04-01T04:17:36;4.20;;;1.20;;
16766;SDS011;8501;49.926;8.404;2023-04-01T04:20:02;3.47;;;1.30;;
16766;SDS011;8501;49.926;8.404;2023-04-01T04:22:28;6.27;;;1.20;;
16766;SDS011;8501;49.926;8.404;2023-04-01T04:24:53;3.57;;;1.27;;
16766;SDS011;8501;49.926;8.404;2023-04-01T04:27:19;4.23;;;1.17;;
16766;SDS011;8501;49.926;8.404;2023-04-01T04:29:45;5.37;;;1.10;;
16766;SDS011;8501;49.926;8.404;2023-04-01T04:32:10;5.13;;;1.30;;
16766;SDS011;8501;49.926;8.404;2023-04-01T04:34:36;5.00;;;1.37;;
16766;SDS011;8501;49.926;8.404;2023-04-01T04:37:02;5.47;;;1.23;;
16766;SDS011;8501;49.926;8.404;2023-04-01T04:39:27;5.83;;;1.30;;
16766;SDS011;8501;49.926;8.404;2023-04-01T04:41:53;4.53;;;1.30;;
16766;SDS011;8501;49.926;8.404;2023-04-01T04:44:19;3.53;;;1.17;;
16766;SDS011;8501;49.926;8.404;2023-04-01T04:46:44;3.53;;;1.33;;
16766;SDS011;8501;49.926;8.404;2023-04-01T04:49:10;5.27;;;1.20;;
16766;SDS011;8501;49.926;8.404;2023-04-01T04:51:35;4.43;;;1.30;;
16766;SDS011;8501;49.926;8.404;2023-04-01T04:54:04;4.00;;;1.30;;
16766;SDS011;8501;49.926;8.404;2023-04-01T04:56:30;3.67;;;1.40;;
16766;SDS011;8501;49.926;8.404;2023-04-01T04:58:56;3.70;;;1.17;;
16766;SDS011;8501;49.926;8.404;2023-04-01T05:01:22;4.03;;;1.27;;
16766;SDS011;8501;49.926;8.404;2023-04-01T05:03:48;2.83;;;1.10;;
16766;SDS011;8501;49.926;8.404;2023-04-01T05:06:14;6.07;;;2.03;;
16766;SDS011;8501;49.926;8.404;2023-04-01T05:08:41;3.60;;;1.10;;
16766;SDS011;8501;49.926;8.404;2023-04-01T05:11:09;5.00;;;1.20;;
16766;SDS011;8501;49.926;8.404;2023-04-01T05:13:37;2.30;;;1.00;;
16766;SDS011;8501;49.926;8.404;2023-04-01T05:16:03;3.13;;;0.90;;
16766;SDS011;8501;49.926;8.404;2023-04-01T05:18:28;3.53;;;0.90;;
16766;SDS011;8501;49.926;8.404;2023-04-01T05:20:54;2.37;;;0.97;;
16766;SDS011;8501;49.926;8.404;2023-04-01T05:23:21;3.33;;;1.00;;
16766;SDS011;8501;49.926;8.404;2023-04-01T05:25:50;3.83;;;1.03;;
16766;SDS011;8501;49.926;8.404;2023-04-01T05:28:18;2.57;;;1.00;;
16766;SDS011;8501;49.926;8.404;2023-04-01T05:30:44;2.70;;;1.03;;
16766;SDS011;8501;49.926;8.404;2023-04-01T05:33:11;1.33;;;0.80;;
16766;SDS011;8501;49.926;8.404;2023-04-01T05:35:37;1.40;;;0.77;;
16766;SDS011;8501;49.926;8.404;2023-04-01T05:38:03;3.50;;;1.00;;
16766;SDS011;8501;49.926;8.404;2023-04-01T05:40:29;1.07;;;0.70;;
16766;SDS011;8501;49.926;8.404;2023-04-01T05:42:55;2.63;;;0.90;;
16766;SDS011;8501;49.926;8.404;2023-04-01T05:45:21;3.10;;;0.90;;
16766;SDS011;8501;49.926;8.404;2023-04-01T05:47:47;2.83;;;1.10;;
16766;SDS011;8501;49.926;8.404;2023-04-01T05:50:12;1.90;;;0.70;;
16766;SDS011;8501;49.926;8.404;2023-04-01T05:52:38;2.17;;;0.77;;
16766;SDS011;8501;49.926;8.404;2023-04-01T05:55:04;1.80;;;0.80;;
16766;SDS011;8501;49.926;8.404;2023-04-01T05:57:30;3.27;;;1.27;;
16766;SDS011;8501;49.926;8.404;2023-04-01T05:59:56;3.07;;;0.93;;
16766;SDS011;8501;49.926;8.404;2023-04-01T06:02:21;2.60;;;0.90;;
16766;SDS011;8501;49.926;8.404;2023-04-01T06:04:47;3.47;;;1.07;;
16766;SDS011;8501;49.926;8.404;2023-04-01T06:07:16;1.90;;;0.80;;
16766;SDS011;8501;49.926;8.404;2023-04-01T06:09:43;3.20;;;0.80;;
16766;SDS011;8501;49.926;8.404;2023-04-01T06:15:06;4.27;;;0.80;;
16766;SDS011;8501;49.926;8.404;2023-04-01T06:20:27;2.27;;;1.00;;
16766;SDS011;8501;49.926;8.404;2023-04-01T06:23:05;1.77;;;0.70;;
16766;SDS011;8501;49.926;8.404;2023-04-01T06:31:21;2.13;;;0.80;;
16766;SDS011;8501;49.926;8.404;2023-04-01T06:37:16;1.93;;;0.77;;
16766;SDS011;8501;49.926;8.404;2023-04-01T06:48:21;1.80;;;0.87;;
16766;SDS011;8501;49.926;8.404;2023-04-01T06:53:55;2.53;;;1.13;;
16766;SDS011;8501;49.926;8.404;2023-04-01T06:56:45;1.53;;;0.80;;
16766;SDS011;8501;49.926;8.404;2023-04-01T06:59:17;2.90;;;0.87;;
16766;SDS011;8501;49.926;8.404;2023-04-01T07:01:53;4.43;;;0.87;;
16766;SDS011;8501;49.926;8.404;2023-04-01T07:04:26;3.03;;;0.80;;
16766;SDS011;8501;49.926;8.404;2023-04-01T07:07:00;1.80;;;0.80;;
16766;SDS011;8501;49.926;8.404;2023-04-01T07:09:37;3.63;;;0.70;;
16766;SDS011;8501;49.926;8.404;2023-04-01T07:12:10;2.40;;;0.77;;
16766;SDS011;8501;49.926;8.404;2023-04-01T07:15:02;1.77;;;0.80;;
16766;SDS011;8501;49.926;8.404;2023-04-01T07:17:38;1.23;;;0.70;;
16766;SDS011;8501;49.926;8.404;2023-04-01T07:20:13;1.63;;;0.73;;
16766;SDS011;8501;49.926;8.404;2023-04-01T07:22:45;1.37;;;0.70;;
16766;SDS011;8501;49.926;8.404;2023-04-01T07:25:14;2.37;;;0.80;;
16766;SDS011;8501;49.926;8.404;2023-04-01T07:27:43;1.60;;;0.77;;
16766;SDS011;8501;49.926;8.404;2023-04-01T07:30:16;1.57;;;0.90;;
16766;SDS011;8501;49.926;8.404;2023-04-01T07:35:33;2.60;;;0.80;;
16766;SDS011;8501;49.926;8.404;2023-04-01T07:41:23;1.77;;;0.60;;
16766;SDS011;8501;49.926;8.404;2023-04-01T07:44:05;1.83;;;0.70;;
16766;SDS011;8501;49.926;8.404;2023-04-01T07:49:08;0.83;;;0.60;;
16766;SDS011;8501;49.926;8.404;2023-04-01T07:55:20;1.03;;;0.50;;
16766;SDS011;8501;49.926;8.404;2023-04-01T08:00:51;0.83;;;0.60;;
16766;SDS011;8501;49.926;8.404;2023-04-01T08:06:51;0.80;;;0.60;;
16766;SDS011;8501;49.926;8.404;2023-04-01T08:12:02;1.50;;;0.60;;
16766;SDS011;8501;49.926;8.404;2023-04-01T08:17:19;0.87;;;0.80;;
16766;SDS011;8501;49.926;8.404;2023-04-01T08:22:29;1.10;;;1.00;;
16766;SDS011;8501;49.926;8.404;2023-04-01T08:25:02;0.57;;;0.57;;
16766;SDS011;8501;49.926;8.404;2023-04-01T08:27:39;1.20;;;0.70;;
16766;SDS011;8501;49.926;8.404;2023-04-01T08:32:53;0.70;;;0.70;;
16766;SDS011;8501;49.926;8.404;2023-04-01T08:35:34;1.50;;;0.60;;
16766;SDS011;8501;49.926;8.404;2023-04-01T08:38:09;1.10;;;0.60;;
16766;SDS011;8501;49.926;8.404;2023-04-01T08:47:05;0.60;;;0.60;;
16766;SDS011;8501;49.926;8.404;2023-04-01T08:55:27;1.60;;;0.60;;
16766;SDS011;8501;49.926;8.404;2023-04-01T09:01:11;1.20;;;0.50;;
16766;SDS011;8501;49.926;8.404;2023-04-01T09:09:47;1.20;;;0.60;;
16766;SDS011;8501;49.926;8.404;2023-04-01T09:32:58;0.70;;;0.60;;
16766;SDS011;8501;49.926;8.404;2023-04-01T09:35:50;0.60;;;0.60;;
16766;SDS011;8501;49.926;8.404;2023-04-01T09:49:20;0.70;;;0.53;;
16766;SDS011;8501;49.926;8.404;2023-04-01T09:52:20;0.53;;;0.50;;
16766;SDS011;8501;49.926;8.404;2023-04-01T09:55:01;0.77;;;0.60;;
16766;SDS011;8501;49.926;8.404;2023-04-01T10:03:10;0.50;;;0.50;;
16766;SDS011;8501;49.926;8.404;2023-04-01T10:40:03;0.70;;;0.70;;
16766;SDS011;8501;49.926;8.404;2023-04-01T10:42:54;1.13;;;0.70;;
16766;SDS011;8501;49.926;8.404;2023-04-01T10:48:52;0.67;;;0.53;;
16766;SDS011;8501;49.926;8.404;2023-04-01T10:54:47;1.30;;;0.50;;
16766;SDS011;8501;49.926;8.404;2023-04-01T11:00:16;0.80;;;0.57;;
16766;SDS011;8501;49.926;8.404;2023-04-01T11:05:24;0.40;;;0.40;;
16766;SDS011;8501;49.926;8.404;2023-04-01T11:27:02;0.93;;;0.50;;
16766;SDS011;8501;49.926;8.404;2023-04-01T11:29:47;0.50;;;0.47;;
16766;SDS011;8501;49.926;8.404;2023-04-01T11:35:23;0.50;;;0.50;;
16766;SDS011;8501;49.926;8.404;2023-04-01T11:46:20;0.80;;;0.67;;
16766;SDS011;8501;49.926;8.404;2023-04-01T11:52:11;0.47;;;0.47;;
16766;SDS011;8501;49.926;8.404;2023-04-01T12:06:32;2.17;;;0.70;;
16766;SDS011;8501;49.926;8.404;2023-04-01T12:26:06;1.00;;;0.90;;
16766;SDS011;8501;49.926;8.404;2023-04-01T12:29:18;0.73;;;0.73;;
16766;SDS011;8501;49.926;8.404;2023-04-01T12:40:51;0.50;;;0.50;;
16766;SDS011;8501;49.926;8.404;2023-04-01T12:46:25;3.57;;;3.27;;
16766;SDS011;8501;49.926;8.404;2023-04-01T12:54:35;2.77;;;1.90;;
16766;SDS011;8501;49.926;8.404;2023-04-01T12:57:24;1.30;;;1.10;;
16766;SDS011;8501;49.926;8.404;2023-04-01T13:03:00;1.10;;;1.00;;
16766;SDS011;8501;49.926;8.404;2023-04-01T13:09:00;0.70;;;0.60;;
16766;SDS011;8501;49.926;8.404;2023-04-01T13:11:47;1.37;;;0.80;;
16766;SDS011;8501;49.926;8.404;2023-04-01T13:22:10;2.50;;;0.70;;
16766;SDS011;8501;49.926;8.404;2023-04-01T13:27:48;1.30;;;0.60;;
16766;SDS011;8501;49.926;8.404;2023-04-01T13:30:26;0.57;;;0.53;;
16766;SDS011;8501;49.926;8.404;2023-04-01T13:33:48;0.70;;;0.70;;
16766;SDS011;8501;49.926;8.404;2023-04-01T13:43:59;0.60;;;0.60;;
16766;SDS011;8501;49.926;8.404;2023-04-01T13:49:34;0.93;;;0.50;;
16766;SDS011;8501;49.926;8.404;2023-04-01T13:52:29;1.30;;;0.60;;
16766;SDS011;8501;49.926;8.404;2023-04-01T13:55:17;0.50;;;0.50;;
16766;SDS011;8501;49.926;8.404;2023-04-01T14:06:33;0.73;;;0.57;;
16766;SDS011;8501;49.926;8.404;2023-04-01T14:11:59;2.13;;;0.50;;
16766;SDS011;8501;49.926;8.404;2023-04-01T14:14:55;0.63;;;0.50;;
16766;SDS011;8501;49.926;8.404;2023-04-01T14:20:36;1.00;;;0.70;;
16766;SDS011;8501;49.926;8.404;2023-04-01T14:28:56;0.60;;;0.50;;
16766;SDS011;8501;49.926;8.404;2023-04-01T14:31:43;0.63;;;0.60;;
16766;SDS011;8501;49.926;8.404;2023-04-01T14:37:33;1.60;;;1.50;;
16766;SDS011;8501;49.926;8.404;2023-04-01T14:42:55;0.90;;;0.70;;
16766;SDS011;8501;49.926;8.404;2023-04-01T14:48:52;6.97;;;5.43;;
16766;SDS011;8501;49.926;8.404;2023-04-01T14:51:34;2.23;;;1.37;;
16766;SDS011;8501;49.926;8.404;2023-04-01T14:54:04;2.73;;;1.97;;
16766;SDS011;8501;49.926;8.404;2023-04-01T14:57:13;3.40;;;2.30;;
16766;SDS011;8501;49.926;8.404;2023-04-01T14:59:46;2.10;;;1.60;;
16766;SDS011;8501;49.926;8.404;2023-04-01T15:08:34;2.07;;;0.90;;
16766;SDS011;8501;49.926;8.404;2023-04-01T15:11:19;9.70;;;5.33;;
16766;SDS011;8501;49.926;8.404;2023-04-01T15:16:58;0.80;;;0.80;;
16766;SDS011;8501;49.926;8.404;2023-04-01T15:19:31;0.70;;;0.60;;
16766;SDS011;8501;49.926;8.404;2023-04-01T15:30:57;0.90;;;0.60;;
16766;SDS011;8501;49.926;8.404;2023-04-01T15:33:51;0.80;;;0.70;;
16766;SDS011;8501;49.926;8.404;2023-04-01T15:41:39;0.70;;;0.57;;
16766;SDS011;8501;49.926;8.404;2023-04-01T15:55:26;0.97;;;0.47;;
16766;SDS011;8501;49.926;8.404;2023-04-01T15:58:05;0.87;;;0.50;;
16766;SDS011;8501;49.926;8.404;2023-04-01T16:12:01;1.03;;;0.70;;
16766;SDS011;8501;49.926;8.404;2023-04-01T16:26:26;0.63;;;0.63;;
16766;SDS011;8501;49.926;8.404;2023-04-01T16:29:17;1.17;;;0.70;;
16766;SDS011;8501;49.926;8.404;2023-04-01T16:34:36;3.47;;;2.20;;
16766;SDS011;8501;49.926;8.404;2023-04-01T16:37:12;1.00;;;0.90;;
16766;SDS011;8501;49.926;8.404;2023-04-01T16:43:04;1.50;;;0.77;;
16766;SDS011;8501;49.926;8.404;2023-04-01T16:45:39;1.43;;;0.60;;
16766;SDS011;8501;49.926;8.404;2023-04-01T16:48:34;0.97;;;0.87;;
16766;SDS011;8501;49.926;8.404;2023-04-01T16:51:15;1.23;;;0.50;;
16766;SDS011;8501;49.926;8.404;2023-04-01T16:53:46;0.70;;;0.70;;
16766;SDS011;8501;49.926;8.404;2023-04-01T16:56:38;1.80;;;0.70;;
16766;SDS011;8501;49.926;8.404;2023-04-01T16:59:16;1.17;;;0.70;;
16766;SDS011;8501;49.926;8.404;2023-04-01T17:04:37;1.10;;;0.90;;
16766;SDS011;8501;49.926;8.404;2023-04-01T17:10:02;2.50;;;1.00;;
16766;SDS011;8501;49.926;8.404;2023-04-01T17:15:46;1.13;;;0.80;;
16766;SDS011;8501;49.926;8.404;2023-04-01T17:21:36;1.77;;;0.70;;
16766;SDS011;8501;49.926;8.404;2023-04-01T17:29:26;1.33;;;0.70;;
16766;SDS011;8501;49.926;8.404;2023-04-01T17:32:17;1.20;;;0.90;;
16766;SDS011;8501;49.926;8.404;2023-04-01T17:40:28;1.00;;;0.90;;
16766;SDS011;8501;49.926;8.404;2023-04-01T17:45:44;5.20;;;3.50;;
16766;SDS011;8501;49.926;8.404;2023-04-01T17:48:24;1.30;;;0.93;;
16766;SDS011;8501;49.926;8.404;2023-04-01T17:54:14;2.17;;;0.80;;
16766;SDS011;8501;49.926;8.404;2023-04-01T17:56:22;0.73;;;0.60;;
16766;SDS011;8501;49.926;8.404;2023-04-01T18:02:29;1.20;;;0.97;;
16766;SDS011;8501;49.926;8.404;2023-04-01T18:05:33;1.03;;;0.93;;
16766;SDS011;8501;49.926;8.404;2023-04-01T18:08:23;0.90;;;0.80;;
16766;SDS011;8501;49.926;8.404;2023-04-01T18:16:56;0.90;;;0.60;;
16766;SDS011;8501;49.926;8.404;2023-04-01T18:19:42;1.40;;;0.70;;
16766;SDS011;8501;49.926;8.404;2023-04-01T18:24:43;0.90;;;0.60;;
16766;SDS011;8501;49.926;8.404;2023-04-01T18:27:23;1.27;;;0.70;;
16766;SDS011;8501;49.926;8.404;2023-04-01T18:32:53;0.63;;;0.60;;
16766;SDS011;8501;49.926;8.404;2023-04-01T18:35:29;0.87;;;0.70;;
16766;SDS011;8501;49.926;8.404;2023-04-01T18:38:15;0.70;;;0.70;;
16766;SDS011;8501;49.926;8.404;2023-04-01T18:43:43;2.20;;;0.70;;
16766;SDS011;8501;49.926;8.404;2023-04-01T18:46:40;0.80;;;0.70;;
16766;SDS011;8501;49.926;8.404;2023-04-01T18:49:17;1.10;;;1.00;;
16766;SDS011;8501;49.926;8.404;2023-04-01T18:51:53;0.90;;;0.80;;
16766;SDS011;8501;49.926;8.404;2023-04-01T19:02:56;1.93;;;0.70;;
16766;SDS011;8501;49.926;8.404;2023-04-01T19:05:34;2.80;;;1.53;;
16766;SDS011;8501;49.926;8.404;2023-04-01T19:10:48;1.70;;;1.00;;
16766;SDS011;8501;49.926;8.404;2023-04-01T19:19:37;1.63;;;0.97;;
16766;SDS011;8501;49.926;8.404;2023-04-01T19:22:41;1.00;;;0.80;;
16766;SDS011;8501;49.926;8.404;2023-04-01T19:28:16;1.67;;;1.00;;
16766;SDS011;8501;49.926;8.404;2023-04-01T19:33:36;1.73;;;1.00;;
16766;SDS011;8501;49.926;8.404;2023-04-01T19:36:29;1.30;;;0.90;;
16766;SDS011;8501;49.926;8.404;2023-04-01T19:52:51;3.80;;;0.93;;
16766;SDS011;8501;49.926;8.404;2023-04-01T19:55:42;1.63;;;0.83;;
16766;SDS011;8501;49.926;8.404;2023-04-01T20:00:44;1.00;;;0.90;;
16766;SDS011;8501;49.926;8.404;2023-04-01T20:03:20;1.30;;;1.03;;
16766;SDS011;8501;49.926;8.404;2023-04-01T20:06:15;1.37;;;1.27;;
16766;SDS011;8501;49.926;8.404;2023-04-01T20:09:25;1.50;;;1.00;;
16766;SDS011;8501;49.926;8.404;2023-04-01T20:15:04;1.50;;;0.90;;
16766;SDS011;8501;49.926;8.404;2023-04-01T20:17:47;1.27;;;0.90;;
16766;SDS011;8501;49.926;8.404;2023-04-01T20:20:20;1.20;;;0.90;;
16766;SDS011;8501;49.926;8.404;2023-04-01T20:22:56;1.00;;;0.90;;
16766;SDS011;8501;49.926;8.404;2023-04-01T20:25:47;1.60;;;0.80;;
16766;SDS011;8501;49.926;8.404;2023-04-01T20:28:20;1.67;;;0.90;;
16766;SDS011;8501;49.926;8.404;2023-04-01T20:33:32;1.07;;;0.90;;
16766;SDS011;8501;49.926;8.404;2023-04-01T20:44:57;1.13;;;0.87;;
16766;SDS011;8501;49.926;8.404;2023-04-01T20:50:45;1.17;;;0.97;;
16766;SDS011;8501;49.926;8.404;2023-04-01T20:53:36;1.53;;;1.00;;
16766;SDS011;8501;49.926;8.404;2023-04-01T20:56:17;2.90;;;1.50;;
16766;SDS011;8501;49.926;8.404;2023-04-01T20:58:58;6.67;;;3.40;;
16766;SDS011;8501;49.926;8.404;2023-04-01T21:07:20;1.60;;;1.10;;
16766;SDS011;8501;49.926;8.404;2023-04-01T21:12:54;1.50;;;1.20;;
16766;SDS011;8501;49.926;8.404;2023-04-01T21:18:39;1.10;;;1.00;;
16766;SDS011;8501;49.926;8.404;2023-04-01T21:32:45;1.83;;;1.40;;
16766;SDS011;8501;49.926;8.404;2023-04-01T21:35:34;2.40;;;1.20;;
16766;SDS011;8501;49.926;8.404;2023-04-01T21:38:24;1.57;;;1.20;;
16766;SDS011;8501;49.926;8.404;2023-04-01T21:41:08;2.13;;;1.30;;
16766;SDS011;8501;49.926;8.404;2023-04-01T21:44:04;1.90;;;1.40;;
16766;SDS011;8501;49.926;8.404;2023-04-01T21:50:08;1.83;;;1.30;;
16766;SDS011;8501;49.926;8.404;2023-04-01T21:55:54;2.53;;;1.60;;
16766;SDS011;8501;49.926;8.404;2023-04-01T21:59:23;3.03;;;1.93;;
16766;SDS011;8501;49.926;8.404;2023-04-01T22:07:29;2.77;;;2.07;;
16766;SDS011;8501;49.926;8.404;2023-04-01T22:16:08;3.30;;;3.00;;
16766;SDS011;8501;49.926;8.404;2023-04-01T22:18:46;1.70;;;1.40;;
16766;SDS011;8501;49.926;8.404;2023-04-01T22:21:29;2.97;;;1.80;;
16766;SDS011;8501;49.926;8.404;2023-04-01T22:30:08;1.93;;;1.27;;
16766;SDS011;8501;49.926;8.404;2023-04-01T22:32:52;1.87;;;1.40;;
16766;SDS011;8501;49.926;8.404;2023-04-01T22:35:33;1.73;;;1.40;;
16766;SDS011;8501;49.926;8.404;2023-04-01T22:41:31;1.77;;;1.30;;
16766;SDS011;8501;49.926;8.404;2023-04-01T22:44:24;1.67;;;1.40;;
16766;SDS011;8501;49.926;8.404;2023-04-01T22:52:40;1.93;;;1.60;;
16766;SDS011;8501;49.926;8.404;2023-04-01T22:55:10;1.47;;;1.37;;
16766;SDS011;8501;49.926;8.404;2023-04-01T22:57:54;2.50;;;1.40;;
16766;SDS011;8501;49.926;8.404;2023-04-01T23:00:24;1.80;;;1.50;;
16766;SDS011;8501;49.926;8.404;2023-04-01T23:05:52;1.77;;;1.50;;
16766;SDS011;8501;49.926;8.404;2023-04-01T23:10:58;3.53;;;1.63;;
16766;SDS011;8501;49.926;8.404;2023-04-01T23:13:38;2.17;;;1.60;;
16766;SDS011;8501;49.926;8.404;2023-04-01T23:16:20;2.70;;;1.50;;
16766;SDS011;8501;49.926;8.404;2023-04-01T23:21:41;1.70;;;1.40;;
16766;SDS011;8501;49.926;8.404;2023-04-01T23:24:25;2.17;;;1.50;;
16766;SDS011;8501;49.926;8.404;2023-04-01T23:27:05;1.60;;;1.50;;
16766;SDS011;8501;49.926;8.404;2023-04-01T23:29:37;2.60;;;1.50;;
16766;SDS011;8501;49.926;8.404;2023-04-01T23:32:18;2.70;;;1.70;;
16766;SDS011;8501;49.926;8.404;2023-04-01T23:34:50;2.70;;;1.50;;
16766;SDS011;8501;49.926;8.404;2023-04-01T23:37:18;1.50;;;1.40;;
16766;SDS011;8501;49.926;8.404;2023-04-01T23:39:45;2.60;;;1.60;;
16766;SDS011;8501;49.926;8.404;2023-04-01T23:42:15;2.17;;;1.77;;
16766;SDS011;8501;49.926;8.404;2023-04-01T23:44:53;1.90;;;1.67;;
16766;SDS011;8501;49.926;8.404;2023-04-01T23:47:22;2.47;;;1.83;;
16766;SDS011;8501;49.926;8.404;2023-04-01T23:52:27;4.33;;;2.10;;
16766;SDS011;8501;49.926;8.404;2023-04-01T23:54:56;2.60;;;2.10;;
16766;SDS011;8501;49.926;8.404;2023-04-01T23:57:35;2.47;;;2.20;;
